sensor_id;sensor_type;location;lat;lon;timestamp;temperature;humidity
324;DHT22;149;51.094;17.002;2023-12-29T00:02:15;3.40;99.90
324;DHT22;149;51.094;17.002;2023-12-29T00:04:42;3.30;99.90
324;DHT22;149;51.094;17.002;2023-12-29T00:07:09;3.30;99.90
324;DHT22;149;51.094;17.002;2023-12-29T00:09:37;3.20;99.90
324;DHT22;149;51.094;17.002;2023-12-29T00:12:08;3.20;99.90
324;DHT22;149;51.094;17.002;2023-12-29T00:14:39;3.20;99.90
324;DHT22;149;51.094;17.002;2023-12-29T00:17:07;3.20;99.90
324;DHT22;149;51.094;17.002;2023-12-29T00:19:34;3.10;99.90
324;DHT22;149;51.094;17.002;2023-12-29T00:22:01;3.10;99.90
324;DHT22;149;51.094;17.002;2023-12-29T00:24:30;3.50;99.90
324;DHT22;149;51.094;17.002;2023-12-29T00:27:01;3.20;99.90
324;DHT22;149;51.094;17.002;2023-12-29T00:29:28;3.20;99.90
324;DHT22;149;51.094;17.002;2023-12-29T00:32:01;3.20;99.90
324;DHT22;149;51.094;17.002;2023-12-29T00:34:30;3.30;99.90
324;DHT22;149;51.094;17.002;2023-12-29T00:36:58;3.30;99.90
324;DHT22;149;51.094;17.002;2023-12-29T00:39:25;3.40;99.90
324;DHT22;149;51.094;17.002;2023-12-29T00:41:57;3.50;99.90
324;DHT22;149;51.094;17.002;2023-12-29T00:44:24;3.50;99.90
324;DHT22;149;51.094;17.002;2023-12-29T00:46:51;3.60;99.90
324;DHT22;149;51.094;17.002;2023-12-29T00:49:18;3.70;99.90
324;DHT22;149;51.094;17.002;2023-12-29T00:51:47;3.30;99.90
324;DHT22;149;51.094;17.002;2023-12-29T00:54:14;3.20;99.90
324;DHT22;149;51.094;17.002;2023-12-29T00:56:48;3.30;99.90
324;DHT22;149;51.094;17.002;2023-12-29T00:59:17;3.30;99.90
324;DHT22;149;51.094;17.002;2023-12-29T01:01:45;3.30;99.90
324;DHT22;149;51.094;17.002;2023-12-29T01:04:12;3.50;99.90
324;DHT22;149;51.094;17.002;2023-12-29T01:06:40;3.40;99.90
324;DHT22;149;51.094;17.002;2023-12-29T01:09:07;3.60;99.90
324;DHT22;149;51.094;17.002;2023-12-29T01:11:37;3.40;99.90
324;DHT22;149;51.094;17.002;2023-12-29T01:14:05;3.20;99.90
324;DHT22;149;51.094;17.002;2023-12-29T01:16:32;3.00;99.90
324;DHT22;149;51.094;17.002;2023-12-29T01:18:59;3.00;99.90
324;DHT22;149;51.094;17.002;2023-12-29T01:21:27;3.00;99.90
324;DHT22;149;51.094;17.002;2023-12-29T01:23:54;3.00;99.90
324;DHT22;149;51.094;17.002;2023-12-29T01:26:21;3.00;99.90
324;DHT22;149;51.094;17.002;2023-12-29T01:28:48;3.10;99.90
324;DHT22;149;51.094;17.002;2023-12-29T01:31:15;3.00;99.90
324;DHT22;149;51.094;17.002;2023-12-29T01:33:43;3.10;99.90
324;DHT22;149;51.094;17.002;2023-12-29T01:36:17;3.00;99.90
324;DHT22;149;51.094;17.002;2023-12-29T01:38:46;3.10;99.90
324;DHT22;149;51.094;17.002;2023-12-29T01:41:14;3.20;99.90
324;DHT22;149;51.094;17.002;2023-12-29T01:46:31;3.40;99.90
324;DHT22;149;51.094;17.002;2023-12-29T01:49:01;3.40;99.90
324;DHT22;149;51.094;17.002;2023-12-29T01:51:28;3.70;99.90
324;DHT22;149;51.094;17.002;2023-12-29T01:53:56;3.90;99.90
324;DHT22;149;51.094;17.002;2023-12-29T01:56:25;3.90;99.90
324;DHT22;149;51.094;17.002;2023-12-29T01:58:55;3.70;99.90
324;DHT22;149;51.094;17.002;2023-12-29T02:01:38;3.60;99.90
324;DHT22;149;51.094;17.002;2023-12-29T02:04:07;3.60;99.90
324;DHT22;149;51.094;17.002;2023-12-29T02:06:34;3.70;99.90
324;DHT22;149;51.094;17.002;2023-12-29T02:09:03;3.50;99.90
324;DHT22;149;51.094;17.002;2023-12-29T02:11:31;3.30;99.90
324;DHT22;149;51.094;17.002;2023-12-29T02:13:59;3.20;99.90
324;DHT22;149;51.094;17.002;2023-12-29T02:16:41;3.20;99.90
324;DHT22;149;51.094;17.002;2023-12-29T02:19:39;3.20;99.90
324;DHT22;149;51.094;17.002;2023-12-29T02:22:08;3.40;99.90
324;DHT22;149;51.094;17.002;2023-12-29T02:24:36;3.40;99.90
324;DHT22;149;51.094;17.002;2023-12-29T02:32:43;3.10;99.90
324;DHT22;149;51.094;17.002;2023-12-29T02:35:14;3.10;99.90
324;DHT22;149;51.094;17.002;2023-12-29T02:37:42;3.00;99.90
324;DHT22;149;51.094;17.002;2023-12-29T02:40:11;2.90;99.90
324;DHT22;149;51.094;17.002;2023-12-29T02:42:38;2.90;99.90
324;DHT22;149;51.094;17.002;2023-12-29T02:45:05;2.90;99.90
324;DHT22;149;51.094;17.002;2023-12-29T02:47:32;2.80;99.90
324;DHT22;149;51.094;17.002;2023-12-29T02:49:59;2.80;99.90
324;DHT22;149;51.094;17.002;2023-12-29T02:52:27;2.70;99.90
324;DHT22;149;51.094;17.002;2023-12-29T02:54:53;2.70;99.90
324;DHT22;149;51.094;17.002;2023-12-29T02:57:21;2.70;99.90
324;DHT22;149;51.094;17.002;2023-12-29T02:59:47;2.90;99.90
324;DHT22;149;51.094;17.002;2023-12-29T03:02:15;2.90;99.90
324;DHT22;149;51.094;17.002;2023-12-29T03:04:42;2.90;99.90
324;DHT22;149;51.094;17.002;2023-12-29T03:07:10;3.00;99.90
324;DHT22;149;51.094;17.002;2023-12-29T03:09:37;2.90;99.90
324;DHT22;149;51.094;17.002;2023-12-29T03:12:04;2.90;99.90
324;DHT22;149;51.094;17.002;2023-12-29T03:14:32;3.00;99.90
324;DHT22;149;51.094;17.002;2023-12-29T03:16:59;2.90;99.90
324;DHT22;149;51.094;17.002;2023-12-29T03:19:26;2.90;99.90
324;DHT22;149;51.094;17.002;2023-12-29T03:21:54;2.90;99.90
324;DHT22;149;51.094;17.002;2023-12-29T03:24:22;2.90;99.90
324;DHT22;149;51.094;17.002;2023-12-29T03:26:49;3.00;99.90
324;DHT22;149;51.094;17.002;2023-12-29T03:29:15;3.00;99.90
324;DHT22;149;51.094;17.002;2023-12-29T03:31:42;3.10;99.90
324;DHT22;149;51.094;17.002;2023-12-29T03:34:09;3.00;99.90
324;DHT22;149;51.094;17.002;2023-12-29T03:36:37;3.00;99.90
324;DHT22;149;51.094;17.002;2023-12-29T03:39:04;3.10;99.90
324;DHT22;149;51.094;17.002;2023-12-29T03:41:31;3.20;99.90
324;DHT22;149;51.094;17.002;2023-12-29T03:43:59;3.20;99.90
324;DHT22;149;51.094;17.002;2023-12-29T03:46:26;3.30;99.90
324;DHT22;149;51.094;17.002;2023-12-29T03:48:53;3.20;99.90
324;DHT22;149;51.094;17.002;2023-12-29T03:51:21;3.40;99.90
324;DHT22;149;51.094;17.002;2023-12-29T03:53:49;3.40;99.90
324;DHT22;149;51.094;17.002;2023-12-29T03:56:17;3.50;99.90
324;DHT22;149;51.094;17.002;2023-12-29T03:58:45;3.60;99.90
324;DHT22;149;51.094;17.002;2023-12-29T04:01:15;3.50;99.90
324;DHT22;149;51.094;17.002;2023-12-29T04:03:43;3.50;99.90
324;DHT22;149;51.094;17.002;2023-12-29T04:06:11;3.40;99.90
324;DHT22;149;51.094;17.002;2023-12-29T04:08:38;3.50;99.90
324;DHT22;149;51.094;17.002;2023-12-29T04:11:05;3.40;99.90
324;DHT22;149;51.094;17.002;2023-12-29T04:13:33;3.40;99.90
324;DHT22;149;51.094;17.002;2023-12-29T04:16:00;3.40;99.90
324;DHT22;149;51.094;17.002;2023-12-29T04:18:28;3.50;99.90
324;DHT22;149;51.094;17.002;2023-12-29T04:20:56;3.60;99.90
324;DHT22;149;51.094;17.002;2023-12-29T04:23:23;3.60;99.90
324;DHT22;149;51.094;17.002;2023-12-29T04:25:50;3.80;99.90
324;DHT22;149;51.094;17.002;2023-12-29T04:28:17;3.50;99.90
324;DHT22;149;51.094;17.002;2023-12-29T04:30:44;3.50;99.90
324;DHT22;149;51.094;17.002;2023-12-29T04:33:11;3.50;99.90
324;DHT22;149;51.094;17.002;2023-12-29T04:35:38;3.40;99.90
324;DHT22;149;51.094;17.002;2023-12-29T04:38:05;3.40;99.90
324;DHT22;149;51.094;17.002;2023-12-29T04:40:33;3.50;99.90
324;DHT22;149;51.094;17.002;2023-12-29T04:43:00;3.60;99.90
324;DHT22;149;51.094;17.002;2023-12-29T04:45:27;3.40;99.90
324;DHT22;149;51.094;17.002;2023-12-29T04:47:55;3.50;99.90
324;DHT22;149;51.094;17.002;2023-12-29T04:50:23;3.70;99.90
324;DHT22;149;51.094;17.002;2023-12-29T04:52:50;3.70;99.90
324;DHT22;149;51.094;17.002;2023-12-29T04:55:17;3.50;99.90
324;DHT22;149;51.094;17.002;2023-12-29T04:57:45;3.30;99.90
324;DHT22;149;51.094;17.002;2023-12-29T05:00:14;3.30;99.90
324;DHT22;149;51.094;17.002;2023-12-29T05:02:42;3.30;99.90
324;DHT22;149;51.094;17.002;2023-12-29T05:05:09;3.50;99.90
324;DHT22;149;51.094;17.002;2023-12-29T05:07:36;3.50;99.90
324;DHT22;149;51.094;17.002;2023-12-29T05:10:03;3.60;99.90
324;DHT22;149;51.094;17.002;2023-12-29T05:12:30;3.70;99.90
324;DHT22;149;51.094;17.002;2023-12-29T05:15:00;3.70;99.90
324;DHT22;149;51.094;17.002;2023-12-29T05:17:27;3.70;99.90
324;DHT22;149;51.094;17.002;2023-12-29T05:19:53;3.80;99.90
324;DHT22;149;51.094;17.002;2023-12-29T05:22:22;3.90;99.90
324;DHT22;149;51.094;17.002;2023-12-29T05:24:49;3.80;99.90
324;DHT22;149;51.094;17.002;2023-12-29T05:27:18;3.90;99.90
324;DHT22;149;51.094;17.002;2023-12-29T05:29:45;3.90;99.90
324;DHT22;149;51.094;17.002;2023-12-29T05:32:11;3.80;99.90
324;DHT22;149;51.094;17.002;2023-12-29T05:34:39;3.90;99.90
324;DHT22;149;51.094;17.002;2023-12-29T05:37:06;3.90;99.90
324;DHT22;149;51.094;17.002;2023-12-29T05:39:33;3.80;99.90
324;DHT22;149;51.094;17.002;2023-12-29T05:42:00;3.80;99.90
324;DHT22;149;51.094;17.002;2023-12-29T05:44:27;3.90;99.90
324;DHT22;149;51.094;17.002;2023-12-29T05:46:54;3.80;99.90
324;DHT22;149;51.094;17.002;2023-12-29T05:49:24;3.80;99.90
324;DHT22;149;51.094;17.002;2023-12-29T05:51:52;4.00;99.90
324;DHT22;149;51.094;17.002;2023-12-29T05:54:19;4.00;99.90
324;DHT22;149;51.094;17.002;2023-12-29T05:56:47;4.10;99.90
324;DHT22;149;51.094;17.002;2023-12-29T05:59:14;4.20;99.90
324;DHT22;149;51.094;17.002;2023-12-29T06:01:41;4.00;99.90
324;DHT22;149;51.094;17.002;2023-12-29T06:04:08;3.90;99.90
324;DHT22;149;51.094;17.002;2023-12-29T06:06:35;3.80;99.90
324;DHT22;149;51.094;17.002;2023-12-29T06:09:03;3.90;99.90
324;DHT22;149;51.094;17.002;2023-12-29T06:11:29;3.90;99.90
324;DHT22;149;51.094;17.002;2023-12-29T06:13:56;3.80;99.90
324;DHT22;149;51.094;17.002;2023-12-29T06:16:23;3.80;99.90
324;DHT22;149;51.094;17.002;2023-12-29T06:18:53;3.90;99.90
324;DHT22;149;51.094;17.002;2023-12-29T06:21:19;3.90;99.90
324;DHT22;149;51.094;17.002;2023-12-29T06:23:46;4.00;99.90
324;DHT22;149;51.094;17.002;2023-12-29T06:26:17;3.90;99.90
324;DHT22;149;51.094;17.002;2023-12-29T06:28:46;3.90;99.90
324;DHT22;149;51.094;17.002;2023-12-29T06:31:13;4.10;99.90
324;DHT22;149;51.094;17.002;2023-12-29T06:33:42;4.10;99.90
324;DHT22;149;51.094;17.002;2023-12-29T06:36:10;4.30;99.90
324;DHT22;149;51.094;17.002;2023-12-29T06:38:37;4.30;99.90
324;DHT22;149;51.094;17.002;2023-12-29T06:41:05;4.20;99.90
324;DHT22;149;51.094;17.002;2023-12-29T06:43:31;4.30;99.90
324;DHT22;149;51.094;17.002;2023-12-29T06:45:59;4.10;99.90
324;DHT22;149;51.094;17.002;2023-12-29T06:48:26;4.00;99.90
324;DHT22;149;51.094;17.002;2023-12-29T06:50:53;4.30;99.90
324;DHT22;149;51.094;17.002;2023-12-29T06:53:20;4.10;99.90
324;DHT22;149;51.094;17.002;2023-12-29T06:55:47;4.20;99.90
324;DHT22;149;51.094;17.002;2023-12-29T06:58:14;4.20;99.90
324;DHT22;149;51.094;17.002;2023-12-29T07:00:41;4.20;99.90
324;DHT22;149;51.094;17.002;2023-12-29T07:03:13;4.20;99.90
324;DHT22;149;51.094;17.002;2023-12-29T07:05:41;4.20;99.90
324;DHT22;149;51.094;17.002;2023-12-29T07:08:08;4.40;99.90
324;DHT22;149;51.094;17.002;2023-12-29T07:10:35;4.50;99.90
324;DHT22;149;51.094;17.002;2023-12-29T07:13:02;4.60;99.90
324;DHT22;149;51.094;17.002;2023-12-29T07:15:30;4.70;99.90
324;DHT22;149;51.094;17.002;2023-12-29T07:17:57;4.70;99.90
324;DHT22;149;51.094;17.002;2023-12-29T07:20:25;4.60;99.90
324;DHT22;149;51.094;17.002;2023-12-29T07:22:51;4.70;99.90
324;DHT22;149;51.094;17.002;2023-12-29T07:25:19;4.60;99.90
324;DHT22;149;51.094;17.002;2023-12-29T07:27:46;4.70;99.90
324;DHT22;149;51.094;17.002;2023-12-29T07:30:13;4.90;99.90
324;DHT22;149;51.094;17.002;2023-12-29T07:32:40;4.90;99.90
324;DHT22;149;51.094;17.002;2023-12-29T07:35:08;4.80;99.90
324;DHT22;149;51.094;17.002;2023-12-29T07:37:35;4.90;99.90
324;DHT22;149;51.094;17.002;2023-12-29T07:40:02;4.80;99.90
324;DHT22;149;51.094;17.002;2023-12-29T07:42:30;5.00;99.90
324;DHT22;149;51.094;17.002;2023-12-29T07:44:59;5.00;99.90
324;DHT22;149;51.094;17.002;2023-12-29T07:47:26;4.90;99.90
324;DHT22;149;51.094;17.002;2023-12-29T07:49:53;5.00;99.90
324;DHT22;149;51.094;17.002;2023-12-29T07:52:21;5.10;99.90
324;DHT22;149;51.094;17.002;2023-12-29T07:54:48;5.20;99.90
324;DHT22;149;51.094;17.002;2023-12-29T07:57:16;5.30;99.90
324;DHT22;149;51.094;17.002;2023-12-29T07:59:42;5.30;99.90
324;DHT22;149;51.094;17.002;2023-12-29T08:02:10;5.40;99.90
324;DHT22;149;51.094;17.002;2023-12-29T08:04:37;5.60;99.90
324;DHT22;149;51.094;17.002;2023-12-29T08:07:04;5.50;99.90
324;DHT22;149;51.094;17.002;2023-12-29T08:09:32;5.70;99.90
324;DHT22;149;51.094;17.002;2023-12-29T08:11:59;5.70;99.90
324;DHT22;149;51.094;17.002;2023-12-29T08:14:27;5.80;99.90
324;DHT22;149;51.094;17.002;2023-12-29T08:16:55;5.90;99.90
324;DHT22;149;51.094;17.002;2023-12-29T08:19:23;6.00;99.90
324;DHT22;149;51.094;17.002;2023-12-29T08:21:51;6.00;99.90
324;DHT22;149;51.094;17.002;2023-12-29T08:24:18;6.20;99.90
324;DHT22;149;51.094;17.002;2023-12-29T08:26:47;6.20;99.90
324;DHT22;149;51.094;17.002;2023-12-29T08:29:14;6.20;99.90
324;DHT22;149;51.094;17.002;2023-12-29T08:31:42;6.50;99.90
324;DHT22;149;51.094;17.002;2023-12-29T08:34:11;6.70;99.90
324;DHT22;149;51.094;17.002;2023-12-29T08:36:40;6.70;99.90
324;DHT22;149;51.094;17.002;2023-12-29T08:39:07;6.80;99.90
324;DHT22;149;51.094;17.002;2023-12-29T08:41:34;7.00;99.90
324;DHT22;149;51.094;17.002;2023-12-29T08:44:02;7.10;99.90
324;DHT22;149;51.094;17.002;2023-12-29T08:46:29;7.10;99.90
324;DHT22;149;51.094;17.002;2023-12-29T08:48:56;7.30;99.90
324;DHT22;149;51.094;17.002;2023-12-29T08:51:24;7.40;99.90
324;DHT22;149;51.094;17.002;2023-12-29T08:53:50;7.40;99.90
324;DHT22;149;51.094;17.002;2023-12-29T08:56:18;7.60;99.90
324;DHT22;149;51.094;17.002;2023-12-29T08:58:45;7.70;99.90
324;DHT22;149;51.094;17.002;2023-12-29T09:01:12;7.80;99.90
324;DHT22;149;51.094;17.002;2023-12-29T09:03:39;7.90;99.90
324;DHT22;149;51.094;17.002;2023-12-29T09:06:06;8.20;99.90
324;DHT22;149;51.094;17.002;2023-12-29T09:08:35;8.20;99.90
324;DHT22;149;51.094;17.002;2023-12-29T09:11:03;8.30;99.90
324;DHT22;149;51.094;17.002;2023-12-29T09:13:31;8.30;99.90
324;DHT22;149;51.094;17.002;2023-12-29T09:15:58;8.40;99.90
324;DHT22;149;51.094;17.002;2023-12-29T09:18:26;8.50;99.90
324;DHT22;149;51.094;17.002;2023-12-29T09:20:53;8.60;99.90
324;DHT22;149;51.094;17.002;2023-12-29T09:23:20;8.60;99.90
324;DHT22;149;51.094;17.002;2023-12-29T09:25:49;8.70;99.90
324;DHT22;149;51.094;17.002;2023-12-29T09:28:16;8.90;99.90
324;DHT22;149;51.094;17.002;2023-12-29T09:30:43;9.00;99.90
324;DHT22;149;51.094;17.002;2023-12-29T09:33:10;9.20;99.90
324;DHT22;149;51.094;17.002;2023-12-29T09:35:39;9.10;99.90
324;DHT22;149;51.094;17.002;2023-12-29T09:38:06;9.20;99.90
324;DHT22;149;51.094;17.002;2023-12-29T09:40:33;9.30;99.90
324;DHT22;149;51.094;17.002;2023-12-29T09:43:02;9.40;99.90
324;DHT22;149;51.094;17.002;2023-12-29T09:45:33;9.40;99.90
324;DHT22;149;51.094;17.002;2023-12-29T09:48:07;9.50;99.90
324;DHT22;149;51.094;17.002;2023-12-29T09:50:35;9.80;99.90
324;DHT22;149;51.094;17.002;2023-12-29T09:53:02;9.70;99.90
324;DHT22;149;51.094;17.002;2023-12-29T09:55:30;9.80;99.90
324;DHT22;149;51.094;17.002;2023-12-29T09:57:59;9.80;99.90
324;DHT22;149;51.094;17.002;2023-12-29T10:00:27;9.90;99.90
324;DHT22;149;51.094;17.002;2023-12-29T10:02:54;9.80;99.90
324;DHT22;149;51.094;17.002;2023-12-29T10:05:21;9.90;99.90
324;DHT22;149;51.094;17.002;2023-12-29T10:07:49;10.00;99.90
324;DHT22;149;51.094;17.002;2023-12-29T10:10:18;9.90;99.90
324;DHT22;149;51.094;17.002;2023-12-29T10:12:48;10.00;99.90
324;DHT22;149;51.094;17.002;2023-12-29T10:15:38;9.90;99.90
324;DHT22;149;51.094;17.002;2023-12-29T10:18:14;10.00;99.90
324;DHT22;149;51.094;17.002;2023-12-29T10:20:56;10.00;99.90
324;DHT22;149;51.094;17.002;2023-12-29T10:23:41;10.10;99.90
324;DHT22;149;51.094;17.002;2023-12-29T10:26:11;10.10;99.90
324;DHT22;149;51.094;17.002;2023-12-29T10:28:39;10.30;99.90
324;DHT22;149;51.094;17.002;2023-12-29T10:31:06;10.40;99.90
324;DHT22;149;51.094;17.002;2023-12-29T10:33:33;10.40;99.90
324;DHT22;149;51.094;17.002;2023-12-29T10:36:01;10.60;99.90
324;DHT22;149;51.094;17.002;2023-12-29T10:38:34;10.60;99.90
324;DHT22;149;51.094;17.002;2023-12-29T10:41:17;10.60;99.90
324;DHT22;149;51.094;17.002;2023-12-29T10:43:46;10.60;99.90
324;DHT22;149;51.094;17.002;2023-12-29T10:46:25;10.80;99.90
324;DHT22;149;51.094;17.002;2023-12-29T10:48:52;10.60;99.90
324;DHT22;149;51.094;17.002;2023-12-29T10:51:26;10.50;99.90
324;DHT22;149;51.094;17.002;2023-12-29T10:53:55;10.40;99.90
324;DHT22;149;51.094;17.002;2023-12-29T10:56:25;10.50;99.90
324;DHT22;149;51.094;17.002;2023-12-29T10:59:00;10.70;99.90
324;DHT22;149;51.094;17.002;2023-12-29T11:01:31;10.90;99.90
324;DHT22;149;51.094;17.002;2023-12-29T11:04:00;10.90;99.90
324;DHT22;149;51.094;17.002;2023-12-29T11:06:28;10.80;99.90
324;DHT22;149;51.094;17.002;2023-12-29T11:08:58;10.80;99.90
324;DHT22;149;51.094;17.002;2023-12-29T11:11:25;10.70;99.90
324;DHT22;149;51.094;17.002;2023-12-29T11:13:53;10.70;99.90
324;DHT22;149;51.094;17.002;2023-12-29T11:16:21;10.80;99.90
324;DHT22;149;51.094;17.002;2023-12-29T11:18:49;10.80;99.90
324;DHT22;149;51.094;17.002;2023-12-29T11:21:22;10.80;99.90
324;DHT22;149;51.094;17.002;2023-12-29T11:23:50;10.80;99.90
324;DHT22;149;51.094;17.002;2023-12-29T11:26:17;10.90;99.90
324;DHT22;149;51.094;17.002;2023-12-29T11:28:48;10.90;99.90
324;DHT22;149;51.094;17.002;2023-12-29T11:31:17;10.70;99.90
324;DHT22;149;51.094;17.002;2023-12-29T11:33:57;10.60;99.90
324;DHT22;149;51.094;17.002;2023-12-29T11:36:34;10.60;99.90
324;DHT22;149;51.094;17.002;2023-12-29T11:39:20;10.60;99.90
324;DHT22;149;51.094;17.002;2023-12-29T11:42:05;10.60;99.90
324;DHT22;149;51.094;17.002;2023-12-29T11:44:33;10.60;99.90
324;DHT22;149;51.094;17.002;2023-12-29T11:47:00;10.50;99.90
324;DHT22;149;51.094;17.002;2023-12-29T11:49:59;10.50;99.90
324;DHT22;149;51.094;17.002;2023-12-29T11:52:39;10.40;99.90
324;DHT22;149;51.094;17.002;2023-12-29T11:55:13;10.50;99.90
324;DHT22;149;51.094;17.002;2023-12-29T11:57:42;10.40;99.90
324;DHT22;149;51.094;17.002;2023-12-29T12:00:10;10.40;99.90
324;DHT22;149;51.094;17.002;2023-12-29T12:02:38;10.60;99.90
324;DHT22;149;51.094;17.002;2023-12-29T12:05:09;10.70;99.90
324;DHT22;149;51.094;17.002;2023-12-29T12:12:49;10.70;99.90
324;DHT22;149;51.094;17.002;2023-12-29T12:17:57;10.60;99.90
324;DHT22;149;51.094;17.002;2023-12-29T12:20:24;10.80;99.90
324;DHT22;149;51.094;17.002;2023-12-29T12:23:00;10.70;99.90
324;DHT22;149;51.094;17.002;2023-12-29T12:25:29;10.80;99.90
324;DHT22;149;51.094;17.002;2023-12-29T12:27:57;10.80;99.90
324;DHT22;149;51.094;17.002;2023-12-29T12:30:24;10.90;99.90
324;DHT22;149;51.094;17.002;2023-12-29T12:32:58;10.90;99.90
324;DHT22;149;51.094;17.002;2023-12-29T12:35:26;10.90;99.90
324;DHT22;149;51.094;17.002;2023-12-29T12:38:12;10.90;99.90
324;DHT22;149;51.094;17.002;2023-12-29T12:40:40;10.90;99.90
324;DHT22;149;51.094;17.002;2023-12-29T12:43:08;11.00;99.90
324;DHT22;149;51.094;17.002;2023-12-29T12:45:42;11.00;99.90
324;DHT22;149;51.094;17.002;2023-12-29T12:48:22;11.00;99.90
324;DHT22;149;51.094;17.002;2023-12-29T12:50:50;11.00;99.90
324;DHT22;149;51.094;17.002;2023-12-29T12:53:18;10.90;99.90
324;DHT22;149;51.094;17.002;2023-12-29T12:55:48;10.90;99.90
324;DHT22;149;51.094;17.002;2023-12-29T12:58:19;11.00;99.90
324;DHT22;149;51.094;17.002;2023-12-29T13:00:50;10.90;99.90
324;DHT22;149;51.094;17.002;2023-12-29T13:03:22;10.90;99.90
324;DHT22;149;51.094;17.002;2023-12-29T13:05:49;10.90;99.90
324;DHT22;149;51.094;17.002;2023-12-29T13:08:17;10.90;99.90
324;DHT22;149;51.094;17.002;2023-12-29T13:10:59;11.00;99.90
324;DHT22;149;51.094;17.002;2023-12-29T13:13:41;10.90;99.90
324;DHT22;149;51.094;17.002;2023-12-29T13:16:09;10.70;99.90
324;DHT22;149;51.094;17.002;2023-12-29T13:18:37;10.60;99.90
324;DHT22;149;51.094;17.002;2023-12-29T13:21:06;10.60;99.90
324;DHT22;149;51.094;17.002;2023-12-29T13:23:34;10.60;99.90
324;DHT22;149;51.094;17.002;2023-12-29T13:26:09;10.50;99.90
324;DHT22;149;51.094;17.002;2023-12-29T13:28:37;10.50;99.90
324;DHT22;149;51.094;17.002;2023-12-29T13:31:08;10.40;99.90
324;DHT22;149;51.094;17.002;2023-12-29T13:33:57;10.30;99.90
324;DHT22;149;51.094;17.002;2023-12-29T13:39:42;10.20;99.90
324;DHT22;149;51.094;17.002;2023-12-29T13:42:15;10.00;99.90
324;DHT22;149;51.094;17.002;2023-12-29T13:44:43;9.90;99.90
324;DHT22;149;51.094;17.002;2023-12-29T13:47:11;9.80;99.90
324;DHT22;149;51.094;17.002;2023-12-29T13:49:39;9.70;99.90
324;DHT22;149;51.094;17.002;2023-12-29T13:52:06;9.60;99.90
324;DHT22;149;51.094;17.002;2023-12-29T13:54:43;9.50;99.90
324;DHT22;149;51.094;17.002;2023-12-29T13:57:11;9.50;99.90
324;DHT22;149;51.094;17.002;2023-12-29T13:59:38;9.40;99.90
324;DHT22;149;51.094;17.002;2023-12-29T14:02:31;9.30;99.90
324;DHT22;149;51.094;17.002;2023-12-29T14:05:27;9.20;99.90
324;DHT22;149;51.094;17.002;2023-12-29T14:08:05;9.10;99.90
324;DHT22;149;51.094;17.002;2023-12-29T14:10:36;9.00;99.90
324;DHT22;149;51.094;17.002;2023-12-29T14:13:12;9.00;99.90
324;DHT22;149;51.094;17.002;2023-12-29T14:15:41;8.90;99.90
324;DHT22;149;51.094;17.002;2023-12-29T14:20:54;8.80;99.90
324;DHT22;149;51.094;17.002;2023-12-29T14:23:21;8.80;99.90
324;DHT22;149;51.094;17.002;2023-12-29T14:25:48;8.80;99.90
324;DHT22;149;51.094;17.002;2023-12-29T14:28:17;8.80;99.90
324;DHT22;149;51.094;17.002;2023-12-29T14:30:45;8.70;99.90
324;DHT22;149;51.094;17.002;2023-12-29T14:33:12;8.70;99.90
324;DHT22;149;51.094;17.002;2023-12-29T14:35:40;8.40;99.90
324;DHT22;149;51.094;17.002;2023-12-29T14:38:07;8.60;99.90
324;DHT22;149;51.094;17.002;2023-12-29T14:40:35;8.50;99.90
324;DHT22;149;51.094;17.002;2023-12-29T14:43:02;8.50;99.90
324;DHT22;149;51.094;17.002;2023-12-29T14:45:30;8.40;99.90
324;DHT22;149;51.094;17.002;2023-12-29T14:47:58;8.40;99.90
324;DHT22;149;51.094;17.002;2023-12-29T14:50:26;8.40;99.90
324;DHT22;149;51.094;17.002;2023-12-29T14:52:54;8.20;99.90
324;DHT22;149;51.094;17.002;2023-12-29T14:55:21;8.30;99.90
324;DHT22;149;51.094;17.002;2023-12-29T14:57:50;8.30;99.90
324;DHT22;149;51.094;17.002;2023-12-29T15:00:18;8.10;99.90
324;DHT22;149;51.094;17.002;2023-12-29T15:02:45;8.10;99.90
324;DHT22;149;51.094;17.002;2023-12-29T15:05:12;8.00;99.90
324;DHT22;149;51.094;17.002;2023-12-29T15:07:39;8.00;99.90
324;DHT22;149;51.094;17.002;2023-12-29T15:10:07;8.00;99.90
324;DHT22;149;51.094;17.002;2023-12-29T15:12:34;8.00;99.90
324;DHT22;149;51.094;17.002;2023-12-29T15:15:01;8.10;99.90
324;DHT22;149;51.094;17.002;2023-12-29T15:17:29;8.10;99.90
324;DHT22;149;51.094;17.002;2023-12-29T15:19:57;8.00;99.90
324;DHT22;149;51.094;17.002;2023-12-29T15:22:25;7.80;99.90
324;DHT22;149;51.094;17.002;2023-12-29T15:24:53;7.80;99.90
324;DHT22;149;51.094;17.002;2023-12-29T15:27:20;7.90;99.90
324;DHT22;149;51.094;17.002;2023-12-29T15:29:47;8.10;99.90
324;DHT22;149;51.094;17.002;2023-12-29T15:32:15;8.00;99.90
324;DHT22;149;51.094;17.002;2023-12-29T15:34:42;7.90;99.90
324;DHT22;149;51.094;17.002;2023-12-29T15:37:09;7.80;99.90
324;DHT22;149;51.094;17.002;2023-12-29T15:39:36;7.70;99.90
324;DHT22;149;51.094;17.002;2023-12-29T15:42:05;7.70;99.90
324;DHT22;149;51.094;17.002;2023-12-29T15:44:32;7.60;99.90
324;DHT22;149;51.094;17.002;2023-12-29T15:47:00;7.70;99.90
324;DHT22;149;51.094;17.002;2023-12-29T15:49:27;7.70;99.90
324;DHT22;149;51.094;17.002;2023-12-29T15:51:54;7.70;99.90
324;DHT22;149;51.094;17.002;2023-12-29T15:54:21;7.70;99.90
324;DHT22;149;51.094;17.002;2023-12-29T15:56:48;7.60;99.90
324;DHT22;149;51.094;17.002;2023-12-29T15:59:15;7.50;99.90
324;DHT22;149;51.094;17.002;2023-12-29T16:01:42;7.60;99.90
324;DHT22;149;51.094;17.002;2023-12-29T16:04:10;7.60;99.90
324;DHT22;149;51.094;17.002;2023-12-29T16:06:36;7.60;99.90
324;DHT22;149;51.094;17.002;2023-12-29T16:09:05;7.70;99.90
324;DHT22;149;51.094;17.002;2023-12-29T16:11:32;7.80;99.90
324;DHT22;149;51.094;17.002;2023-12-29T16:14:00;7.90;99.90
324;DHT22;149;51.094;17.002;2023-12-29T16:16:27;8.00;99.90
324;DHT22;149;51.094;17.002;2023-12-29T16:19:00;8.00;99.90
324;DHT22;149;51.094;17.002;2023-12-29T16:21:34;8.10;99.90
324;DHT22;149;51.094;17.002;2023-12-29T16:24:02;8.10;99.90
324;DHT22;149;51.094;17.002;2023-12-29T16:26:29;8.10;99.90
324;DHT22;149;51.094;17.002;2023-12-29T16:29:08;8.10;99.90
324;DHT22;149;51.094;17.002;2023-12-29T16:31:35;8.10;99.90
324;DHT22;149;51.094;17.002;2023-12-29T16:34:03;8.20;99.90
324;DHT22;149;51.094;17.002;2023-12-29T16:36:30;8.20;99.90
324;DHT22;149;51.094;17.002;2023-12-29T16:38:57;8.20;99.90
324;DHT22;149;51.094;17.002;2023-12-29T16:41:24;8.20;99.90
324;DHT22;149;51.094;17.002;2023-12-29T16:43:51;8.20;99.90
324;DHT22;149;51.094;17.002;2023-12-29T16:46:18;8.20;99.90
324;DHT22;149;51.094;17.002;2023-12-29T16:48:45;8.20;99.90
324;DHT22;149;51.094;17.002;2023-12-29T16:51:12;8.30;99.90
324;DHT22;149;51.094;17.002;2023-12-29T16:53:39;8.30;99.90
324;DHT22;149;51.094;17.002;2023-12-29T16:56:07;8.30;99.90
324;DHT22;149;51.094;17.002;2023-12-29T16:58:34;8.30;99.90
324;DHT22;149;51.094;17.002;2023-12-29T17:01:04;8.40;99.90
324;DHT22;149;51.094;17.002;2023-12-29T17:03:31;8.40;99.90
324;DHT22;149;51.094;17.002;2023-12-29T17:05:58;8.50;99.90